Mojave, CA (93501)

7:08 PM PST on February 22, 2017 (GMT -0800)
Mojave | | Change Station
Active Advisory: Wind Advisory

Elev 2789 ft 35.06 °N, 118.15 °W | Updated 28 minutes ago

Clear
Clear
43 °F
Feels Like 36 °F
N
14
Wind Variable Wind from West
Gusts 21 mph

Today
High -- | Low -- °F
--% Chance of Precip.
Yesterday
High -- | Low -- °F
Precip. -- in
Pressure 30.03 in
Visibility 10.0 miles
Clouds Few 4700 ft
Few 5500 ft
Windchill 36 °F
Dew Point 28 °F
Humidity 57%
Rainfall 0.00 in
Snow Depth Not available.
6:30 AM 5:42 PM
Waning Crescent, 13% visible
METAR KMHV 230240Z AUTO 27012G18KT 10SM FEW047 FEW055 06/M02 A3003 RMK A01
Pressure 30.03 in
Visibility 10.0 miles
Clouds Few 4700 ft
Few 5500 ft
Windchill 36 °F
Dew Point 28 °F
Humidity 57%
Rainfall 0.00 in
Snow Depth Not available.
6:30 AM 5:42 PM
Waning Crescent, 13% visible
METAR KMHV 230240Z AUTO 27012G18KT 10SM FEW047 FEW055 06/M02 A3003 RMK A01

Get Your Daily Forecast Email!

Thanks for signing up!

Be on the lookout for a verification email in your inbox.

You'll start receiving the daily forecast at 8 AM.

×

10-Day Weather Forecast

Almanac

Astronomy

Feb. 22, 2017 Rise Set
Actual Time
Civil Twilight
Nautical Twilight
Astronomical Twilight
Moon
Length of Visible Light
Length of Day
Tomorrow will be .
, % of the Moon is Illuminated

Today's Extremes

State Highs State Lows

Community

WunderPhotos

Upload Photos

1,962,540 photos uploaded!

WunderBlog® & News

Nearby

Air Quality

  Air Quality AQ Index Pollutant
Not available.

Snow Depth

Station Depth Elevation

Earthquake Activity

City Distance Mag. Time & Date
Minimum magnitude displayed is 2.5.

Coastal Water Temperatures

Place Temperature

Stations

Nearby Weather Stations

Station Location Temp. Windchill Dew Point Humidity Wind Precip. Elev Updated Type
                   

Watches & Warnings

Wind Advisory
Issued: 1:42 PM PST Feb. 22, 2017 – National Weather Service

... Wind Advisory remains in effect until 1 am PST Thursday...

* winds... west 20 to 30 mph with gusts up to 50 mph.

* Timing... winds increasing this afternoon. Strongest winds
occurring late afternoon into the evening hours then
decreasing during the night.

* Impacts..downed trees and power lines as well as difficulty
driving. Gusty winds will blow around unsecured objects

Precautionary/preparedness actions...

A Wind Advisory means that winds of at least 45 mph are expected.
Winds this strong can make driving difficult, especially for high
profile vehicles. Use extra caution.